createdAt,value
2019-04-03T00:00:26.047Z,6.87
2019-04-03T00:01:05.102Z,6.87
2019-04-03T00:01:39.071Z,6.87
2019-04-03T00:02:15.490Z,6.87
2019-04-03T00:02:48.468Z,6.87
2019-04-03T00:03:21.474Z,6.87
2019-04-03T00:03:54.376Z,6.87
2019-04-03T00:04:27.503Z,6.87
2019-04-03T00:05:00.428Z,6.87
2019-04-03T00:05:33.738Z,6.87
2019-04-03T00:06:08.332Z,6.87
2019-04-03T00:06:41.382Z,6.87
2019-04-03T00:07:14.375Z,6.81
2019-04-03T00:07:48.491Z,6.81
2019-04-03T00:08:22.141Z,6.81
2019-04-03T00:08:56.561Z,6.81
2019-04-03T00:09:29.628Z,6.75
2019-04-03T00:10:04.751Z,6.75
2019-04-03T00:10:38.455Z,6.75
2019-04-03T00:11:11.558Z,6.69
2019-04-03T00:11:44.672Z,6.69
2019-04-03T00:12:17.732Z,6.62
2019-04-03T00:12:50.703Z,6.62
2019-04-03T00:13:25.500Z,6.62
2019-04-03T00:13:58.501Z,6.56
2019-04-03T00:14:31.447Z,6.56
2019-04-03T00:15:05.969Z,6.56
2019-04-03T00:15:39.413Z,6.56
2019-04-03T00:16:15.435Z,6.56
2019-04-03T00:16:48.973Z,6.50
2019-04-03T00:17:22.068Z,6.56
2019-04-03T00:17:55.367Z,6.56
2019-04-03T00:18:28.464Z,6.56
2019-04-03T00:19:01.633Z,6.56
2019-04-03T00:19:34.633Z,6.56
2019-04-03T00:20:07.795Z,6.56
2019-04-03T00:20:40.801Z,6.56
2019-04-03T00:21:13.773Z,6.56
2019-04-03T00:21:46.800Z,6.62
2019-04-03T00:22:22.011Z,6.62
2019-04-03T00:22:54.619Z,6.62
2019-04-03T00:23:27.463Z,6.62
2019-04-03T00:24:00.550Z,6.62
2019-04-03T00:24:34.555Z,6.62
2019-04-03T00:25:07.568Z,6.62
2019-04-03T00:25:40.388Z,6.62
2019-04-03T00:26:13.487Z,6.69
2019-04-03T00:26:46.524Z,6.69
2019-04-03T00:27:21.957Z,6.69
2019-04-03T00:27:54.369Z,6.69
2019-04-03T00:28:27.165Z,6.69
2019-04-03T00:29:00.192Z,6.69
2019-04-03T00:29:33.094Z,6.69
2019-04-03T00:30:07.126Z,6.69
2019-04-03T00:30:40.124Z,6.69
2019-04-03T00:31:13.265Z,6.69
2019-04-03T00:31:46.048Z,6.69
2019-04-03T00:32:18.999Z,6.69
2019-04-03T00:32:53.602Z,6.69
2019-04-03T00:33:26.699Z,6.69
2019-04-03T00:33:59.784Z,6.69
2019-04-03T00:34:32.644Z,6.69
2019-04-03T00:35:06.428Z,6.75
2019-04-03T00:35:39.447Z,6.75
2019-04-03T00:36:12.261Z,6.75
2019-04-03T00:36:45.290Z,6.75
2019-04-03T00:37:18.257Z,6.75
2019-04-03T00:37:52.993Z,6.69
2019-04-03T00:38:26.123Z,6.75
2019-04-03T00:39:00.261Z,6.69
2019-04-03T00:39:33.258Z,6.75
2019-04-03T00:40:08.586Z,6.75
2019-04-03T00:40:41.605Z,6.69
2019-04-03T00:41:14.588Z,6.69
2019-04-03T00:41:47.630Z,6.69
2019-04-03T00:42:20.474Z,6.69
2019-04-03T00:42:54.627Z,6.69
2019-04-03T00:43:29.567Z,6.69
2019-04-03T00:44:02.890Z,6.69
2019-04-03T00:44:35.930Z,6.69
2019-04-03T00:45:09.114Z,6.69
2019-04-03T00:45:42.174Z,6.69
2019-04-03T00:46:15.058Z,6.69
2019-04-03T00:46:48.300Z,6.69
2019-04-03T00:47:21.408Z,6.69
2019-04-03T00:47:55.762Z,6.69
2019-04-03T00:48:28.984Z,6.69
2019-04-03T00:49:01.894Z,6.69
2019-04-03T00:49:34.877Z,6.69
2019-04-03T00:50:08.019Z,6.69
2019-04-03T00:50:40.990Z,6.69
2019-04-03T00:51:14.022Z,6.69
2019-04-03T00:51:46.929Z,6.69
2019-04-03T00:52:20.076Z,6.69
2019-04-03T00:52:52.974Z,6.69
2019-04-03T00:53:27.694Z,6.69
2019-04-03T00:54:01.029Z,6.62
2019-04-03T00:54:33.881Z,6.56
2019-04-03T00:55:06.986Z,6.44
2019-04-03T00:55:40.050Z,6.44
2019-04-03T00:56:12.822Z,6.37
2019-04-03T00:56:45.875Z,6.31
2019-04-03T00:57:18.789Z,6.25
2019-04-03T00:57:51.870Z,6.25
2019-04-03T00:58:37.044Z,6.19
2019-04-03T00:59:09.991Z,6.19
2019-04-03T00:59:42.993Z,6.19
2019-04-03T01:00:17.167Z,6.19
2019-04-03T01:00:50.142Z,6.12
2019-04-03T01:01:23.130Z,6.19
2019-04-03T01:01:56.697Z,6.12
2019-04-03T01:02:30.076Z,6.12
2019-04-03T01:03:04.171Z,6.12
2019-04-03T01:03:37.510Z,6.12
2019-04-03T01:04:10.487Z,6.12
2019-04-03T01:04:43.545Z,6.06
2019-04-03T01:05:16.526Z,6.06
2019-04-03T01:05:49.512Z,6.06
2019-04-03T01:06:23.239Z,6.06
2019-04-03T01:06:58.540Z,6.06
2019-04-03T01:07:31.641Z,6.06
2019-04-03T01:08:04.596Z,6.06
2019-04-03T01:08:37.642Z,6.06
2019-04-03T01:09:10.663Z,6.06
2019-04-03T01:09:43.613Z,6.00
2019-04-03T01:10:16.581Z,6.00
2019-04-03T01:10:49.476Z,6.00
2019-04-03T01:11:22.643Z,6.00
2019-04-03T01:11:55.730Z,5.94
2019-04-03T01:12:30.481Z,5.94
2019-04-03T01:13:03.727Z,5.94
2019-04-03T01:13:36.844Z,5.94
2019-04-03T01:14:09.850Z,5.94
2019-04-03T01:14:42.826Z,5.94
2019-04-03T01:15:16.026Z,5.94
2019-04-03T01:15:48.927Z,5.87
2019-04-03T01:16:23.074Z,5.94
2019-04-03T01:16:57.164Z,5.87
2019-04-03T01:17:30.252Z,5.87
2019-04-03T01:18:05.210Z,5.87
2019-04-03T01:18:38.406Z,5.87
2019-04-03T01:19:11.640Z,5.87
2019-04-03T01:19:44.522Z,5.87
2019-04-03T01:20:17.600Z,5.87
2019-04-03T01:20:50.965Z,5.81
2019-04-03T01:21:24.173Z,5.81
2019-04-03T01:21:57.144Z,5.81
2019-04-03T01:22:30.003Z,5.87
2019-04-03T01:23:03.032Z,5.87
2019-04-03T01:23:37.985Z,5.81
2019-04-03T01:24:11.105Z,5.81
2019-04-03T01:24:44.185Z,5.81
2019-04-03T01:25:17.202Z,5.75
2019-04-03T01:25:50.252Z,5.75
2019-04-03T01:26:23.247Z,5.69
2019-04-03T01:26:56.272Z,5.69
2019-04-03T01:27:29.174Z,5.62
2019-04-03T01:28:03.393Z,5.56
2019-04-03T01:28:36.377Z,5.56
2019-04-03T01:29:10.628Z,5.50
2019-04-03T01:29:44.231Z,5.50
2019-04-03T01:30:17.282Z,5.44
2019-04-03T01:30:50.275Z,5.44
2019-04-03T01:31:23.442Z,5.37
2019-04-03T01:31:56.447Z,5.37
2019-04-03T01:32:29.677Z,5.31
2019-04-03T01:33:02.666Z,5.31
2019-04-03T01:33:36.672Z,5.31
2019-04-03T01:34:10.542Z,5.31
2019-04-03T01:34:43.707Z,5.25
2019-04-03T01:35:17.375Z,5.25
2019-04-03T01:35:51.000Z,5.25
2019-04-03T01:36:23.898Z,5.19
2019-04-03T01:36:56.851Z,5.19
2019-04-03T01:37:29.630Z,5.19
2019-04-03T01:38:02.583Z,5.12
2019-04-03T01:38:35.601Z,5.12
2019-04-03T01:39:08.838Z,5.12
2019-04-03T01:39:41.738Z,5.06
2019-04-03T01:40:14.612Z,5.06
2019-04-03T01:40:50.204Z,5.06
2019-04-03T01:41:22.646Z,5.00
2019-04-03T01:41:55.612Z,5.00
2019-04-03T01:42:28.494Z,5.00
2019-04-03T01:43:01.496Z,5.00
2019-04-03T01:43:34.563Z,4.94
2019-04-03T01:44:07.532Z,4.94
2019-04-03T01:44:40.468Z,4.94
2019-04-03T01:45:14.587Z,4.94
2019-04-03T01:45:47.424Z,4.94
2019-04-03T01:46:20.521Z,4.87
2019-04-03T01:46:53.656Z,4.87
2019-04-03T01:47:27.805Z,4.87
2019-04-03T01:48:01.288Z,4.87
2019-04-03T01:48:34.190Z,4.87
2019-04-03T01:49:08.818Z,4.87
2019-04-03T01:49:43.046Z,4.87
2019-04-03T01:50:16.132Z,4.87
2019-04-03T01:50:49.068Z,4.87
2019-04-03T01:51:22.019Z,4.87
2019-04-03T01:51:55.145Z,4.87
2019-04-03T01:52:31.083Z,4.87
2019-04-03T01:53:04.058Z,4.87
2019-04-03T01:53:36.883Z,4.87
2019-04-03T01:54:09.790Z,4.87
2019-04-03T01:54:42.736Z,4.87
2019-04-03T01:55:15.766Z,4.87
2019-04-03T01:55:48.560Z,4.81
2019-04-03T01:56:21.571Z,4.81
2019-04-03T01:56:54.673Z,4.81
2019-04-03T01:57:27.571Z,4.81
2019-04-03T01:58:00.566Z,4.81
2019-04-03T01:58:34.635Z,4.81
2019-04-03T01:59:08.580Z,4.81
2019-04-03T01:59:41.578Z,4.81
2019-04-03T02:00:14.911Z,4.81
2019-04-03T02:00:47.897Z,4.81
2019-04-03T02:01:20.880Z,4.81
2019-04-03T02:01:53.987Z,4.81
2019-04-03T02:02:26.928Z,4.81
2019-04-03T02:03:01.933Z,4.81
2019-04-03T02:03:34.780Z,4.81
2019-04-03T02:04:07.711Z,4.81
2019-04-03T02:04:42.663Z,4.81
2019-04-03T02:05:15.555Z,4.81
2019-04-03T02:05:48.554Z,4.81
2019-04-03T02:06:21.595Z,4.81
2019-04-03T02:06:54.617Z,4.81
2019-04-03T02:07:27.434Z,4.87
2019-04-03T02:08:00.572Z,4.81
2019-04-03T02:08:33.630Z,4.81
2019-04-03T02:09:08.996Z,4.81
2019-04-03T02:09:42.114Z,4.81
2019-04-03T02:10:17.763Z,4.81
2019-04-03T02:10:51.119Z,4.75
2019-04-03T02:11:24.104Z,4.75
2019-04-03T02:11:57.068Z,4.75
2019-04-03T02:12:30.080Z,4.75
2019-04-03T02:13:03.055Z,4.75
2019-04-03T02:13:36.074Z,4.69
2019-04-03T02:14:09.115Z,4.69
2019-04-03T02:14:41.877Z,4.69
2019-04-03T02:15:14.992Z,4.69
2019-04-03T02:15:48.013Z,4.69
2019-04-03T02:16:21.424Z,4.75
2019-04-03T02:16:55.813Z,4.75
2019-04-03T02:17:29.106Z,4.75
2019-04-03T02:18:02.164Z,4.81
2019-04-03T02:18:35.142Z,4.81
2019-04-03T02:19:08.215Z,4.81
2019-04-03T02:19:41.424Z,4.81
2019-04-03T02:20:14.887Z,4.81
2019-04-03T02:20:47.878Z,4.81
2019-04-03T02:21:21.718Z,4.87
2019-04-03T02:21:54.895Z,4.87
2019-04-03T02:22:29.528Z,4.87
2019-04-03T02:23:03.015Z,4.94
2019-04-03T02:23:36.124Z,4.94
2019-04-03T02:24:10.230Z,4.94
2019-04-03T02:24:43.291Z,5.00
2019-04-03T02:25:16.517Z,5.00
2019-04-03T02:25:49.480Z,5.06
2019-04-03T02:26:22.561Z,5.06
2019-04-03T02:26:55.593Z,5.06
2019-04-03T02:27:28.432Z,5.06
2019-04-03T02:28:01.874Z,5.06
2019-04-03T02:28:36.470Z,5.06
2019-04-03T02:29:09.597Z,5.06
2019-04-03T02:29:42.545Z,5.06
2019-04-03T02:30:16.085Z,5.06
2019-04-03T02:30:49.317Z,5.12
2019-04-03T02:31:22.284Z,5.12
2019-04-03T02:31:56.027Z,5.12
2019-04-03T02:32:29.257Z,5.12
2019-04-03T02:33:02.264Z,5.12
2019-04-03T02:33:35.188Z,5.12
2019-04-03T02:34:08.148Z,5.12
2019-04-03T02:34:41.323Z,5.12
2019-04-03T02:35:14.407Z,5.12
2019-04-03T02:35:47.599Z,5.12
2019-04-03T02:36:20.682Z,5.12
2019-04-03T02:36:54.724Z,5.06
2019-04-03T02:37:29.522Z,5.06
2019-04-03T02:38:02.742Z,5.00
2019-04-03T02:38:35.672Z,5.00
2019-04-03T02:39:08.656Z,4.94
2019-04-03T02:39:41.763Z,4.94
2019-04-03T02:40:15.813Z,4.94
2019-04-03T02:40:48.963Z,4.87
2019-04-03T02:41:22.371Z,4.87
2019-04-03T02:41:55.440Z,4.81
2019-04-03T02:42:28.653Z,4.81
2019-04-03T02:43:01.711Z,4.81
2019-04-03T02:43:35.743Z,4.75
2019-04-03T02:44:08.822Z,4.75
2019-04-03T02:44:41.769Z,4.75
2019-04-03T02:45:14.861Z,4.75
2019-04-03T02:45:48.287Z,4.75
2019-04-03T02:46:21.530Z,4.75
2019-04-03T02:46:54.499Z,4.69
2019-04-03T02:47:27.465Z,4.69
2019-04-03T02:48:04.825Z,4.69
2019-04-03T02:48:38.307Z,4.62
2019-04-03T02:49:11.041Z,4.62
2019-04-03T02:49:44.103Z,4.62
2019-04-03T02:50:24.303Z,4.62
2019-04-03T02:50:58.438Z,4.56
2019-04-03T02:51:31.594Z,4.56
2019-04-03T02:52:04.660Z,4.56
2019-04-03T02:52:37.887Z,4.56
2019-04-03T02:53:11.382Z,4.56
2019-04-03T02:53:44.392Z,4.56
2019-04-03T02:54:28.096Z,4.50
2019-04-03T02:55:01.451Z,4.50
2019-04-03T02:55:34.556Z,4.50
2019-04-03T02:56:11.831Z,4.50
2019-04-03T02:56:44.480Z,4.50
2019-04-03T02:57:18.435Z,4.44
2019-04-03T02:57:51.996Z,4.44
2019-04-03T02:58:25.232Z,4.44
2019-04-03T02:58:58.090Z,4.44
2019-04-03T02:59:30.996Z,4.37
2019-04-03T03:00:05.656Z,4.37
2019-04-03T03:00:38.979Z,4.37
2019-04-03T03:01:12.156Z,4.37
2019-04-03T03:01:45.076Z,4.31
2019-04-03T03:02:18.005Z,4.31
2019-04-03T03:02:50.990Z,4.31
2019-04-03T03:03:23.899Z,4.31
2019-04-03T03:03:58.006Z,4.25
2019-04-03T03:04:31.133Z,4.25
2019-04-03T03:05:04.595Z,4.25
2019-04-03T03:05:39.225Z,4.19
2019-04-03T03:06:12.658Z,4.19
2019-04-03T03:06:47.446Z,4.19
2019-04-03T03:07:20.529Z,4.19
2019-04-03T03:07:53.570Z,4.19
2019-04-03T03:08:26.823Z,4.12
2019-04-03T03:09:01.467Z,4.12
2019-04-03T03:09:35.047Z,4.12
2019-04-03T03:10:08.438Z,4.12
2019-04-03T03:10:41.514Z,4.12
2019-04-03T03:11:14.613Z,4.12
2019-04-03T03:11:47.873Z,4.06
2019-04-03T03:12:21.444Z,4.06
2019-04-03T03:12:57.626Z,4.06
2019-04-03T03:13:34.617Z,4.06
2019-04-03T03:14:07.873Z,4.00
2019-04-03T03:14:41.387Z,4.00
2019-04-03T03:15:14.631Z,4.00
2019-04-03T03:15:48.762Z,3.94
2019-04-03T03:16:21.787Z,3.94
2019-04-03T03:16:56.753Z,3.94
2019-04-03T03:17:30.000Z,3.94
2019-04-03T03:18:03.531Z,3.94
2019-04-03T03:18:36.986Z,3.94
2019-04-03T03:19:12.036Z,3.94
2019-04-03T03:19:47.061Z,3.87
2019-04-03T03:20:23.407Z,3.87
2019-04-03T03:20:56.407Z,3.94
2019-04-03T03:21:30.641Z,3.94
2019-04-03T03:22:03.615Z,3.94
2019-04-03T03:22:38.906Z,3.94
2019-04-03T03:23:12.225Z,3.94
2019-04-03T03:23:47.933Z,3.94
2019-04-03T03:24:21.184Z,4.00
2019-04-03T03:24:54.630Z,4.00
2019-04-03T03:25:27.869Z,4.00
2019-04-03T03:26:04.046Z,4.06
2019-04-03T03:26:37.792Z,4.06
2019-04-03T03:27:11.399Z,4.06
2019-04-03T03:27:46.675Z,4.06
2019-04-03T03:28:19.782Z,4.12
2019-04-03T03:28:53.216Z,4.12
2019-04-03T03:29:27.619Z,4.12
2019-04-03T03:30:02.342Z,4.12
2019-04-03T03:30:45.991Z,4.12
2019-04-03T03:31:10.880Z,4.12
2019-04-03T03:32:04.747Z,4.12
2019-04-03T03:32:29.086Z,4.06
2019-04-03T03:33:10.152Z,4.12
2019-04-03T03:33:36.457Z,4.12
2019-04-03T03:34:06.474Z,4.12
2019-04-03T03:35:08.229Z,4.12
2019-04-03T03:35:20.084Z,4.12
2019-04-03T03:35:52.015Z,4.12
2019-04-03T03:36:26.824Z,4.12
2019-04-03T03:37:03.247Z,4.12
2019-04-03T03:37:36.387Z,4.12
2019-04-03T03:38:09.884Z,4.06
2019-04-03T03:38:43.542Z,4.06
2019-04-03T03:39:17.313Z,4.06
2019-04-03T03:39:51.247Z,4.06
2019-04-03T03:40:24.926Z,4.00
2019-04-03T03:40:58.221Z,4.00
2019-04-03T03:41:31.906Z,4.00
2019-04-03T03:42:05.234Z,4.00
2019-04-03T03:42:38.271Z,4.00
2019-04-03T03:43:11.298Z,4.00
2019-04-03T03:43:44.632Z,4.00
2019-04-03T03:44:19.391Z,4.00
2019-04-03T03:44:54.511Z,4.00
2019-04-03T03:45:30.732Z,4.00
2019-04-03T03:46:04.303Z,4.00
2019-04-03T03:46:37.574Z,4.06
2019-04-03T03:47:11.334Z,4.06
2019-04-03T03:47:44.822Z,4.06
2019-04-03T03:48:18.090Z,4.06
2019-04-03T03:48:52.048Z,4.06
2019-04-03T03:49:25.898Z,4.06
2019-04-03T03:49:59.420Z,4.06
2019-04-03T03:50:35.137Z,4.06
2019-04-03T03:51:08.646Z,4.06
2019-04-03T03:51:42.768Z,4.12
2019-04-03T03:52:17.686Z,4.12
2019-04-03T03:52:51.067Z,4.12
2019-04-03T03:53:24.475Z,4.12
2019-04-03T03:53:57.952Z,4.19
2019-04-03T03:54:31.780Z,4.19
2019-04-03T03:55:06.190Z,4.25
2019-04-03T03:55:40.051Z,4.25
2019-04-03T03:56:13.641Z,4.31
2019-04-03T03:56:47.080Z,4.31
2019-04-03T03:57:20.270Z,4.31
2019-04-03T03:57:54.011Z,4.37
2019-04-03T03:58:28.141Z,4.37
2019-04-03T03:59:02.113Z,4.37
2019-04-03T03:59:36.492Z,4.37
2019-04-03T04:00:10.167Z,4.37
2019-04-03T04:00:44.125Z,4.37
2019-04-03T04:01:17.658Z,4.44
2019-04-03T04:01:50.818Z,4.44
2019-04-03T04:02:23.812Z,4.44
2019-04-03T04:02:56.935Z,4.44
2019-04-03T04:03:30.415Z,4.50
2019-04-03T04:04:03.654Z,4.50
2019-04-03T04:04:36.850Z,4.50
2019-04-03T04:05:11.901Z,4.50
2019-04-03T04:05:45.006Z,4.50
2019-04-03T04:06:19.279Z,4.50
2019-04-03T04:06:54.047Z,4.50
2019-04-03T04:07:27.188Z,4.50
2019-04-03T04:08:00.344Z,4.56
2019-04-03T04:08:33.452Z,4.56
2019-04-03T04:09:07.241Z,4.56
2019-04-03T04:09:40.276Z,4.56
2019-04-03T04:10:13.455Z,4.56
2019-04-03T04:10:46.856Z,4.56
2019-04-03T04:11:20.048Z,4.56
2019-04-03T04:11:53.355Z,4.56
2019-04-03T04:12:26.602Z,4.56
2019-04-03T04:12:59.642Z,4.62
2019-04-03T04:13:33.506Z,4.62
2019-04-03T04:14:06.813Z,4.62
2019-04-03T04:14:40.039Z,4.62
2019-04-03T04:15:13.287Z,4.62
2019-04-03T04:15:46.545Z,4.69
2019-04-03T04:16:19.656Z,4.69
2019-04-03T04:16:53.890Z,4.69
2019-04-03T04:17:27.018Z,4.69
2019-04-03T04:18:00.401Z,4.75
2019-04-03T04:18:34.025Z,4.75
2019-04-03T04:19:08.881Z,4.75
2019-04-03T04:19:42.496Z,4.75
2019-04-03T04:20:15.422Z,4.75
2019-04-03T04:20:48.862Z,4.75
2019-04-03T04:21:22.468Z,4.75
2019-04-03T04:21:55.713Z,4.81
2019-04-03T04:22:29.136Z,4.81
2019-04-03T04:23:02.429Z,4.81
2019-04-03T04:23:35.503Z,4.81
2019-04-03T04:24:08.531Z,4.87
2019-04-03T04:24:42.140Z,4.87
2019-04-03T04:25:15.091Z,4.87
2019-04-03T04:25:49.226Z,4.87
2019-04-03T04:26:22.267Z,4.87
2019-04-03T04:26:56.574Z,4.87
2019-04-03T04:27:29.848Z,4.87
2019-04-03T04:28:03.034Z,4.87
2019-04-03T04:28:39.222Z,4.87
2019-04-03T04:29:12.708Z,4.87
2019-04-03T04:29:45.916Z,4.94
2019-04-03T04:30:19.192Z,4.87
2019-04-03T04:30:52.272Z,4.94
2019-04-03T04:31:25.538Z,4.94
2019-04-03T04:31:58.534Z,4.94
2019-04-03T04:32:32.552Z,4.94
2019-04-03T04:33:07.106Z,4.94
2019-04-03T04:33:40.181Z,4.87
2019-04-03T04:34:13.235Z,4.87
2019-04-03T04:34:49.257Z,4.87
2019-04-03T04:35:22.219Z,4.87
2019-04-03T04:35:55.310Z,4.87
2019-04-03T04:36:28.278Z,4.81
2019-04-03T04:37:02.783Z,4.81
2019-04-03T04:37:36.088Z,4.81
2019-04-03T04:38:09.671Z,4.81
2019-04-03T04:38:42.867Z,4.81
2019-04-03T04:39:15.869Z,4.81
2019-04-03T04:39:49.076Z,4.81
2019-04-03T04:40:22.311Z,4.81
2019-04-03T04:40:55.432Z,4.81
2019-04-03T04:41:28.356Z,4.81
2019-04-03T04:42:03.411Z,4.81
2019-04-03T04:42:36.835Z,4.81
2019-04-03T04:43:09.982Z,4.81
2019-04-03T04:43:42.798Z,4.81
2019-04-03T04:44:15.872Z,4.81
2019-04-03T04:44:48.974Z,4.81
2019-04-03T04:45:23.586Z,4.81
2019-04-03T04:45:56.537Z,4.81
2019-04-03T04:46:29.536Z,4.81
2019-04-03T04:47:02.650Z,4.81
2019-04-03T04:47:35.771Z,4.81
2019-04-03T04:48:08.885Z,4.75
2019-04-03T04:48:42.172Z,4.75
2019-04-03T04:49:15.255Z,4.75
2019-04-03T04:49:48.154Z,4.75
2019-04-03T04:50:24.234Z,4.75
2019-04-03T04:50:56.392Z,4.75
2019-04-03T04:51:29.708Z,4.75
2019-04-03T04:52:02.784Z,4.75
2019-04-03T04:52:35.588Z,4.69
2019-04-03T04:53:08.823Z,4.69
2019-04-03T04:53:41.871Z,4.62
2019-04-03T04:54:14.676Z,4.62
2019-04-03T04:54:47.592Z,4.62
2019-04-03T04:55:20.584Z,4.62
2019-04-03T04:55:54.566Z,4.56
2019-04-03T04:56:27.498Z,4.56
2019-04-03T04:57:00.923Z,4.56
2019-04-03T04:57:34.315Z,4.56
2019-04-03T04:58:07.540Z,4.56
2019-04-03T04:58:42.463Z,4.56
2019-04-03T04:59:15.191Z,4.50
2019-04-03T04:59:48.204Z,4.50
2019-04-03T05:00:21.328Z,4.50
2019-04-03T05:00:54.550Z,4.50
2019-04-03T05:01:28.393Z,4.56
2019-04-03T05:02:01.498Z,4.56
2019-04-03T05:02:34.590Z,4.56
2019-04-03T05:03:08.744Z,4.56
2019-04-03T05:03:41.913Z,4.56
2019-04-03T05:04:15.919Z,4.56
2019-04-03T05:04:49.131Z,4.56
2019-04-03T05:05:22.221Z,4.56
2019-04-03T05:05:58.479Z,4.56
2019-04-03T05:06:31.128Z,4.56
2019-04-03T05:07:04.255Z,4.56
2019-04-03T05:07:37.333Z,4.56
2019-04-03T05:08:10.365Z,4.56
2019-04-03T05:08:43.453Z,4.56
2019-04-03T05:09:16.479Z,4.56
2019-04-03T05:09:49.334Z,4.50
2019-04-03T05:10:22.260Z,4.50
2019-04-03T05:10:55.251Z,4.50
2019-04-03T05:11:28.599Z,4.50
2019-04-03T05:12:01.484Z,4.44
2019-04-03T05:12:34.498Z,4.44
2019-04-03T05:13:07.616Z,4.44
2019-04-03T05:13:40.860Z,4.44
2019-04-03T05:14:13.864Z,4.37
2019-04-03T05:14:51.482Z,4.44
2019-04-03T05:15:24.494Z,4.44
2019-04-03T05:15:57.647Z,4.44
2019-04-03T05:16:30.628Z,4.37
2019-04-03T05:17:03.748Z,4.37
2019-04-03T05:17:36.744Z,4.37
2019-04-03T05:18:09.919Z,4.37
2019-04-03T05:18:42.980Z,4.37
2019-04-03T05:19:18.930Z,4.37
2019-04-03T05:19:50.948Z,4.31
2019-04-03T05:20:24.086Z,4.31
2019-04-03T05:20:57.534Z,4.31
2019-04-03T05:21:30.715Z,4.31
2019-04-03T05:22:03.747Z,4.31
2019-04-03T05:22:36.722Z,4.31
2019-04-03T05:23:09.994Z,4.31
2019-04-03T05:23:42.947Z,4.31
2019-04-03T05:24:16.000Z,4.25
2019-04-03T05:24:48.948Z,4.25
2019-04-03T05:25:22.058Z,4.25
2019-04-03T05:25:54.906Z,4.25
2019-04-03T05:26:27.798Z,4.25
2019-04-03T05:27:02.448Z,4.25
2019-04-03T05:27:36.341Z,4.19
2019-04-03T05:28:09.489Z,4.19
2019-04-03T05:28:54.243Z,4.19
2019-04-03T05:29:17.548Z,4.19
2019-04-03T05:29:50.738Z,4.12
2019-04-03T05:30:32.279Z,4.12
2019-04-03T05:31:07.647Z,4.12
2019-04-03T05:31:40.600Z,4.12
2019-04-03T05:32:13.611Z,4.06
2019-04-03T05:32:46.467Z,4.06
2019-04-03T05:33:19.724Z,4.12
2019-04-03T05:33:52.818Z,4.12
2019-04-03T05:34:25.867Z,4.06
2019-04-03T05:34:58.960Z,4.12
2019-04-03T05:35:31.798Z,4.06
2019-04-03T05:36:04.763Z,4.06
2019-04-03T05:36:38.974Z,4.06
2019-04-03T05:37:12.783Z,4.06
2019-04-03T05:37:46.024Z,4.06
2019-04-03T05:38:21.826Z,4.06
2019-04-03T05:38:54.088Z,4.06
2019-04-03T05:39:27.138Z,4.00
2019-04-03T05:40:00.174Z,4.06
2019-04-03T05:40:34.378Z,4.06
2019-04-03T05:41:07.274Z,4.06
2019-04-03T05:41:40.333Z,4.06
2019-04-03T05:42:13.494Z,4.06
2019-04-03T05:42:46.550Z,4.06
2019-04-03T05:43:19.618Z,4.06
2019-04-03T05:43:52.651Z,4.06
2019-04-03T05:44:25.680Z,4.06
2019-04-03T05:44:58.816Z,4.06
2019-04-03T05:45:34.487Z,4.06
2019-04-03T05:46:06.816Z,4.06
2019-04-03T05:46:39.956Z,4.06
2019-04-03T05:47:12.944Z,4.06
2019-04-03T05:47:46.030Z,4.06
2019-04-03T05:48:19.390Z,4.06
2019-04-03T05:48:52.366Z,4.06
2019-04-03T05:49:25.360Z,4.06
2019-04-03T05:49:58.552Z,4.06
2019-04-03T05:50:31.600Z,4.06
2019-04-03T05:51:04.739Z,4.12
2019-04-03T05:51:37.987Z,4.12
2019-04-03T05:52:11.077Z,4.12
2019-04-03T05:52:44.525Z,4.12
2019-04-03T05:53:17.802Z,4.19
2019-04-03T05:53:53.698Z,4.19
2019-04-03T05:54:27.496Z,4.19
2019-04-03T05:55:00.580Z,4.25
2019-04-03T05:55:34.717Z,4.25
2019-04-03T05:56:07.939Z,4.25
2019-04-03T05:56:42.964Z,4.25
2019-04-03T05:57:16.211Z,4.25
2019-04-03T05:57:49.318Z,4.25
2019-04-03T05:58:22.396Z,4.25
2019-04-03T05:58:59.096Z,4.31
2019-04-03T05:59:32.520Z,4.31
2019-04-03T06:00:07.108Z,4.31
2019-04-03T06:00:41.108Z,4.31
2019-04-03T06:01:14.418Z,4.31
2019-04-03T06:01:47.594Z,4.31
2019-04-03T06:02:22.056Z,4.37
2019-04-03T06:02:57.173Z,4.37
2019-04-03T06:03:40.523Z,4.37
2019-04-03T06:04:05.402Z,4.44
2019-04-03T06:04:38.761Z,4.44
2019-04-03T06:05:13.362Z,4.44
2019-04-03T06:05:46.650Z,4.44
2019-04-03T06:06:19.647Z,4.44
2019-04-03T06:06:52.678Z,4.44
2019-04-03T06:07:25.734Z,4.44
2019-04-03T06:07:58.792Z,4.44
2019-04-03T06:08:34.257Z,4.44
2019-04-03T06:09:07.562Z,4.44
2019-04-03T06:09:40.398Z,4.44
2019-04-03T06:10:13.758Z,4.50
2019-04-03T06:10:46.770Z,4.50
2019-04-03T06:11:20.863Z,4.50
2019-04-03T06:11:54.346Z,4.50
2019-04-03T06:12:27.493Z,4.56
2019-04-03T06:13:01.134Z,4.56
2019-04-03T06:13:34.265Z,4.56
2019-04-03T06:14:08.773Z,4.56
2019-04-03T06:14:42.017Z,4.62
2019-04-03T06:15:15.365Z,4.62
2019-04-03T06:15:48.521Z,4.62
2019-04-03T06:16:23.411Z,4.69
2019-04-03T06:16:56.849Z,4.69
2019-04-03T06:17:30.042Z,4.75
2019-04-03T06:18:03.388Z,4.75
2019-04-03T06:18:36.520Z,4.75
2019-04-03T06:19:09.422Z,4.75
2019-04-03T06:19:42.449Z,4.75
2019-04-03T06:20:15.679Z,4.81
2019-04-03T06:20:48.827Z,4.81
2019-04-03T06:21:24.296Z,4.87
2019-04-03T06:21:57.387Z,4.87
2019-04-03T06:22:30.286Z,4.94
2019-04-03T06:23:04.293Z,4.94
2019-04-03T06:23:38.635Z,4.94
2019-04-03T06:24:11.774Z,5.00
2019-04-03T06:24:46.474Z,5.00
2019-04-03T06:25:19.713Z,5.06
2019-04-03T06:25:52.618Z,5.06
2019-04-03T06:26:25.790Z,5.06
2019-04-03T06:26:58.886Z,5.06
2019-04-03T06:27:31.911Z,5.06
2019-04-03T06:28:04.914Z,5.06
2019-04-03T06:28:37.765Z,5.06
2019-04-03T06:29:10.829Z,5.12
2019-04-03T06:29:45.681Z,5.12
2019-04-03T06:30:18.842Z,5.12
2019-04-03T06:30:51.817Z,5.12
2019-04-03T06:31:26.489Z,5.12
2019-04-03T06:31:59.658Z,5.12
2019-04-03T06:32:32.583Z,5.12
2019-04-03T06:33:06.580Z,5.19
2019-04-03T06:33:39.589Z,5.19
2019-04-03T06:34:12.597Z,5.19
2019-04-03T06:34:45.618Z,5.19
2019-04-03T06:35:18.693Z,5.19
2019-04-03T06:35:51.721Z,5.19
2019-04-03T06:36:25.036Z,5.19
2019-04-03T06:36:58.172Z,5.19
2019-04-03T06:37:31.402Z,5.19
2019-04-03T06:38:05.323Z,5.19
2019-04-03T06:38:38.214Z,5.19
2019-04-03T06:39:11.263Z,5.12
2019-04-03T06:39:44.563Z,5.19
2019-04-03T06:40:18.803Z,5.12
2019-04-03T06:40:51.870Z,5.12
2019-04-03T06:41:25.002Z,5.12
2019-04-03T06:41:57.934Z,5.12
2019-04-03T06:42:32.293Z,5.12
2019-04-03T06:43:05.330Z,5.12
2019-04-03T06:43:38.372Z,5.12
2019-04-03T06:44:11.409Z,5.19
2019-04-03T06:44:44.408Z,5.19
2019-04-03T06:45:17.488Z,5.19
2019-04-03T06:45:50.774Z,5.25
2019-04-03T06:46:23.743Z,5.25
2019-04-03T06:46:56.808Z,5.31
2019-04-03T06:47:31.856Z,5.31
2019-04-03T06:48:05.506Z,5.31
2019-04-03T06:48:38.582Z,5.37
2019-04-03T06:49:11.476Z,5.37
2019-04-03T06:49:44.442Z,5.31
2019-04-03T06:50:17.950Z,5.37
2019-04-03T06:50:50.918Z,5.37
2019-04-03T06:51:23.868Z,5.37
2019-04-03T06:51:57.022Z,5.44
2019-04-03T06:52:29.932Z,5.44
2019-04-03T06:53:03.048Z,5.50
2019-04-03T06:53:35.955Z,5.50
2019-04-03T06:54:08.897Z,5.50
2019-04-03T06:54:44.245Z,5.50
2019-04-03T06:55:17.100Z,5.50
2019-04-03T06:55:49.988Z,5.50
2019-04-03T06:56:23.020Z,5.50
2019-04-03T06:56:55.933Z,5.50
2019-04-03T06:57:29.060Z,5.50
2019-04-03T06:58:01.951Z,5.56
2019-04-03T06:58:38.916Z,5.56
2019-04-03T06:59:09.898Z,5.56
2019-04-03T06:59:42.979Z,5.62
2019-04-03T07:00:16.235Z,5.62
2019-04-03T07:00:49.141Z,5.69
2019-04-03T07:01:22.044Z,5.69
2019-04-03T07:01:55.085Z,5.69
2019-04-03T07:02:31.053Z,5.69
2019-04-03T07:03:03.874Z,5.69
2019-04-03T07:03:37.203Z,5.62
2019-04-03T07:04:11.291Z,5.62
2019-04-03T07:04:44.382Z,5.62
2019-04-03T07:05:17.659Z,5.56
2019-04-03T07:05:50.979Z,5.56
2019-04-03T07:06:24.277Z,5.50
2019-04-03T07:06:57.362Z,5.50
2019-04-03T07:07:34.356Z,5.50
2019-04-03T07:08:06.446Z,5.44
2019-04-03T07:08:41.214Z,5.44
2019-04-03T07:09:22.757Z,5.44
2019-04-03T07:09:50.815Z,5.44
2019-04-03T07:10:26.008Z,5.44
2019-04-03T07:10:59.082Z,5.44
2019-04-03T07:11:31.991Z,5.44
2019-04-03T07:12:04.910Z,5.44
2019-04-03T07:12:37.941Z,5.44
2019-04-03T07:13:10.942Z,5.44
2019-04-03T07:13:43.986Z,5.44
2019-04-03T07:14:16.924Z,5.44
2019-04-03T07:14:49.978Z,5.44
2019-04-03T07:15:24.818Z,5.50
2019-04-03T07:15:58.008Z,5.50
2019-04-03T07:16:31.022Z,5.50
2019-04-03T07:17:05.889Z,5.56
2019-04-03T07:17:39.295Z,5.56
2019-04-03T07:18:12.693Z,5.62
2019-04-03T07:18:45.813Z,5.62
2019-04-03T07:19:20.345Z,5.69
2019-04-03T07:19:53.466Z,5.75
2019-04-03T07:20:26.515Z,5.81
2019-04-03T07:20:59.494Z,5.81
2019-04-03T07:21:32.503Z,5.87
2019-04-03T07:22:05.861Z,5.87
2019-04-03T07:22:38.874Z,5.94
2019-04-03T07:23:11.894Z,5.94
2019-04-03T07:23:44.825Z,6.00
2019-04-03T07:24:17.774Z,6.06
2019-04-03T07:24:50.775Z,6.12
2019-04-03T07:25:23.725Z,6.19
2019-04-03T07:25:56.850Z,6.25
2019-04-03T07:26:29.836Z,6.31